RO-0013 weather

Aeroclubul Balta-Verde
Romania

Public forecast

Using degrees Celsius for public forecast. Weather courtesy of forecast.io.

METAR (pilot weather report)

Closest report is Craiova Airport, 4.6 nm (8.5 km) ENE. Retrieved 2019/08/23 21:30 UTC (0 seconds ago):

LRCV 232130Z AUTO 07007KT 9999 BKN085 22/14 Q1021

TAF (pilot weather forecast)

Forecast is more than 12 hours old.

Closest forecast is Craiova Airport, 4.6 nm (8.5 km) ENE. Retrieved 2014/07/19 18:48 UTC (5 years ago):

TAF LRCV 191800Z 1918/2024 CNL